createdAt,value
2018-06-21T02:07:50.398Z,3
2018-06-21T02:08:20.500Z,0
2018-06-21T02:08:50.500Z,3
2018-06-21T02:18:21.116Z,7
2018-06-21T02:22:21.444Z,10
2018-06-21T02:25:21.649Z,13
2018-06-21T02:27:21.800Z,17
2018-06-21T02:28:51.748Z,20
2018-06-21T02:30:21.872Z,23
2018-06-21T02:31:51.940Z,27
2018-06-21T02:32:52.048Z,30
2018-06-21T02:33:52.055Z,33
2018-06-21T02:34:52.141Z,37
2018-06-21T02:35:22.195Z,40
2018-06-21T02:36:22.243Z,43
2018-06-21T02:36:52.265Z,47
2018-06-21T02:37:52.385Z,50
2018-06-21T02:38:22.373Z,53
2018-06-21T02:38:52.349Z,57
2018-06-21T02:39:22.428Z,60
2018-06-21T02:39:52.481Z,63
2018-06-21T02:40:22.481Z,67
2018-06-21T02:40:52.521Z,70
2018-06-21T02:41:22.583Z,73
2018-06-21T02:41:52.521Z,77
2018-06-21T02:42:22.615Z,80
2018-06-21T02:42:52.653Z,83
2018-06-21T02:43:22.658Z,90
2018-06-21T02:43:52.688Z,93
2018-06-21T02:44:22.706Z,97
2018-06-21T02:44:52.694Z,103
2018-06-21T02:45:22.777Z,107
2018-06-21T02:45:52.790Z,113
2018-06-21T02:46:22.917Z,117
2018-06-21T02:46:52.849Z,123
2018-06-21T02:47:22.892Z,127
2018-06-21T02:47:52.917Z,133
2018-06-21T02:48:22.959Z,140
2018-06-21T02:48:52.967Z,143
2018-06-21T02:49:23.040Z,150
2018-06-21T02:49:52.999Z,157
2018-06-21T02:50:23.080Z,163
2018-06-21T02:50:53.080Z,170
2018-06-21T02:51:23.162Z,177
2018-06-21T02:51:53.121Z,183
2018-06-21T02:52:23.215Z,193
2018-06-21T02:52:53.255Z,200
2018-06-21T02:53:23.260Z,207
2018-06-21T02:53:53.297Z,213
2018-06-21T02:54:23.362Z,217
2018-06-21T02:54:53.379Z,227
2018-06-21T02:55:23.412Z,233
2018-06-21T02:55:53.395Z,243
2018-06-21T02:56:23.499Z,250
2018-06-21T02:56:53.483Z,260
2018-06-21T02:57:23.524Z,267
2018-06-21T02:57:53.590Z,277
2018-06-21T02:58:23.598Z,287
2018-06-21T02:58:53.581Z,297
2018-06-21T02:59:23.793Z,307
2018-06-21T02:59:53.760Z,317
2018-06-21T03:00:23.699Z,327
2018-06-21T03:00:53.685Z,337
2018-06-21T03:01:23.760Z,347
2018-06-21T03:01:53.806Z,357
2018-06-21T03:02:23.823Z,367
2018-06-21T03:02:53.867Z,380
2018-06-21T03:03:23.886Z,390
2018-06-21T03:03:53.944Z,403
2018-06-21T03:04:24.091Z,413
2018-06-21T03:04:53.928Z,423
2018-06-21T03:05:24.004Z,433
2018-06-21T03:05:53.998Z,443
2018-06-21T03:06:24.076Z,457
2018-06-21T03:06:54.043Z,470
2018-06-21T03:07:24.142Z,480
2018-06-21T03:07:54.138Z,493
2018-06-21T03:08:24.240Z,507
2018-06-21T03:08:54.173Z,520
2018-06-21T03:09:24.335Z,533
2018-06-21T03:09:54.241Z,547
2018-06-21T03:10:24.368Z,563
2018-06-21T03:10:54.323Z,577
2018-06-21T03:11:24.414Z,590
2018-06-21T03:11:54.415Z,603
2018-06-21T03:12:24.497Z,617
2018-06-21T03:12:54.520Z,627
2018-06-21T03:13:24.521Z,640
2018-06-21T03:13:54.491Z,650
2018-06-21T03:14:24.651Z,660
2018-06-21T03:14:54.577Z,673
2018-06-21T03:15:24.668Z,687
2018-06-21T03:15:54.658Z,703
2018-06-21T03:16:24.747Z,720
2018-06-21T03:16:54.715Z,737
2018-06-21T03:17:24.834Z,750
2018-06-21T03:17:54.828Z,763
2018-06-21T03:18:24.866Z,773
2018-06-21T03:18:54.783Z,780
2018-06-21T03:19:24.893Z,790
2018-06-21T03:19:54.909Z,800
2018-06-21T03:20:24.958Z,817
2018-06-21T03:20:54.940Z,830
2018-06-21T03:21:25.015Z,837
2018-06-21T03:21:55.011Z,840
2018-06-21T03:22:25.042Z,850
2018-06-21T03:22:55.050Z,863
2018-06-21T03:23:25.110Z,883
2018-06-21T03:23:55.061Z,900
2018-06-21T03:24:25.159Z,917
2018-06-21T03:24:55.219Z,933
2018-06-21T03:25:25.226Z,953
2018-06-21T03:25:55.226Z,977
2018-06-21T03:26:25.288Z,1007
2018-06-21T03:26:55.320Z,1037
2018-06-21T03:27:25.346Z,1067
2018-06-21T03:27:55.399Z,1107
2018-06-21T03:28:25.420Z,1147
2018-06-21T03:28:55.401Z,1187
2018-06-21T03:29:25.511Z,1217
2018-06-21T03:29:55.505Z,1243
2018-06-21T03:30:25.821Z,1257
2018-06-21T03:30:55.573Z,1267
2018-06-21T03:31:25.652Z,1280
2018-06-21T03:31:55.648Z,1293
2018-06-21T03:32:25.741Z,1323
2018-06-21T03:32:55.675Z,1357
2018-06-21T03:33:25.784Z,1393
2018-06-21T03:33:55.720Z,1427
2018-06-21T03:34:26.127Z,1453
2018-06-21T03:34:55.765Z,1477
2018-06-21T03:35:25.815Z,1490
2018-06-21T03:35:55.796Z,1503
2018-06-21T03:36:25.880Z,1517
2018-06-21T03:36:55.857Z,1523
2018-06-21T03:37:25.946Z,1527
2018-06-21T03:37:56.028Z,1533
2018-06-21T03:38:26.023Z,1540
2018-06-21T03:38:55.997Z,1550
2018-06-21T03:39:26.062Z,1567
2018-06-21T03:39:56.033Z,1583
2018-06-21T03:40:26.174Z,1610
2018-06-21T03:40:56.112Z,1643
2018-06-21T03:41:26.222Z,1683
2018-06-21T03:41:56.208Z,1717
2018-06-21T03:42:26.271Z,1753
2018-06-21T03:42:56.292Z,1793
2018-06-21T03:43:26.381Z,1833
2018-06-21T03:43:56.353Z,1877
2018-06-21T03:44:26.373Z,1920
2018-06-21T03:44:56.401Z,1957
2018-06-21T03:45:26.470Z,1993
2018-06-21T03:45:56.448Z,2030
2018-06-21T03:46:26.525Z,2057
2018-06-21T03:46:56.499Z,2080
2018-06-21T03:47:26.600Z,2100
2018-06-21T03:47:56.615Z,2120
2018-06-21T03:48:26.657Z,2133
2018-06-21T03:48:56.657Z,2143
2018-06-21T03:49:26.674Z,2153
2018-06-21T03:49:56.670Z,2167
2018-06-21T03:50:26.767Z,2187
2018-06-21T03:50:56.728Z,2207
2018-06-21T03:51:26.815Z,2233
2018-06-21T03:51:56.807Z,2263
2018-06-21T03:52:26.862Z,2297
2018-06-21T03:52:56.909Z,2327
2018-06-21T03:53:26.928Z,2347
2018-06-21T03:53:56.928Z,2380
2018-06-21T03:54:27.034Z,2417
2018-06-21T03:54:56.968Z,2453
2018-06-21T03:55:27.050Z,2490
2018-06-21T03:55:57.035Z,2520
2018-06-21T03:56:27.124Z,2547
2018-06-21T03:56:57.105Z,2570
2018-06-21T03:57:27.179Z,2597
2018-06-21T03:57:57.292Z,2617
2018-06-21T03:58:27.290Z,2643
2018-06-21T03:58:57.268Z,2670
2018-06-21T03:59:27.380Z,2703
2018-06-21T03:59:57.284Z,2733
2018-06-21T04:00:27.396Z,2767
2018-06-21T04:00:57.333Z,2797
2018-06-21T04:01:27.453Z,2833
2018-06-21T04:01:57.467Z,2870
2018-06-21T04:02:27.749Z,2907
2018-06-21T04:02:57.597Z,2937
2018-06-21T04:03:27.599Z,2963
2018-06-21T04:03:57.583Z,2983
2018-06-21T04:04:27.636Z,2997
2018-06-21T04:04:57.620Z,3007
2018-06-21T04:05:27.792Z,3023
2018-06-21T04:05:57.689Z,3047
2018-06-21T04:06:27.868Z,3077
2018-06-21T04:06:57.764Z,3113
2018-06-21T04:07:27.817Z,3153
2018-06-21T04:07:57.837Z,3197
2018-06-21T04:08:27.898Z,3237
2018-06-21T04:08:57.867Z,3270
2018-06-21T04:09:27.973Z,3300
2018-06-21T04:09:57.937Z,3330
2018-06-21T04:10:28.064Z,3353
2018-06-21T04:10:57.997Z,3380
2018-06-21T04:11:28.064Z,3407
2018-06-21T04:11:58.035Z,3430
2018-06-21T04:12:28.135Z,3457
2018-06-21T04:12:58.183Z,3477
2018-06-21T04:13:28.199Z,3493
2018-06-21T04:13:58.150Z,3507
2018-06-21T04:14:28.266Z,3517
2018-06-21T04:14:58.289Z,3530
2018-06-21T04:15:28.314Z,3547
2018-06-21T04:15:58.263Z,3587
2018-06-21T04:16:28.370Z,3630
2018-06-21T04:16:58.437Z,3677
2018-06-21T04:17:28.518Z,3720
2018-06-21T04:17:58.462Z,3760
2018-06-21T04:18:28.506Z,3790
2018-06-21T04:18:58.489Z,3820
2018-06-21T04:19:28.594Z,3840
2018-06-21T04:19:58.512Z,3857
2018-06-21T04:20:28.623Z,3873
2018-06-21T04:20:58.588Z,3883
2018-06-21T04:21:28.683Z,3903
2018-06-21T04:21:58.634Z,3937
2018-06-21T04:22:28.714Z,3963
2018-06-21T04:22:58.726Z,3990
2018-06-21T04:23:28.843Z,4023
2018-06-21T04:23:58.768Z,4077
2018-06-21T04:24:28.929Z,4150
2018-06-21T04:24:58.816Z,4250
2018-06-21T04:25:28.896Z,4350
2018-06-21T04:25:58.879Z,4417
2018-06-21T04:26:29.009Z,4460
2018-06-21T04:26:58.937Z,4467
2018-06-21T04:27:29.101Z,4417
2018-06-21T04:27:59.103Z,4353
2018-06-21T04:28:29.084Z,4337
2018-06-21T04:28:59.073Z,4387
2018-06-21T04:29:29.199Z,4473
2018-06-21T04:29:59.188Z,4530
2018-06-21T04:30:29.254Z,4527
2018-06-21T04:30:59.180Z,4457
2018-06-21T04:31:29.332Z,4413
2018-06-21T04:31:59.249Z,4427
2018-06-21T04:32:29.337Z,4497
2018-06-21T04:32:59.405Z,4673
2018-06-21T04:33:29.433Z,4977
2018-06-21T04:33:59.440Z,5280
2018-06-21T04:34:29.489Z,5583
2018-06-21T04:34:59.466Z,5877
2018-06-21T04:35:29.559Z,6143
2018-06-21T04:35:59.545Z,6220
2018-06-21T04:36:29.661Z,6140
2018-06-21T04:36:59.616Z,5903
2018-06-21T04:37:29.708Z,5680
2018-06-21T04:37:59.686Z,5507
2018-06-21T04:38:29.697Z,5440
2018-06-21T04:38:59.706Z,5400
2018-06-21T04:39:29.811Z,5413
2018-06-21T04:39:59.736Z,5520
2018-06-21T04:40:30.065Z,5737
2018-06-21T04:40:59.807Z,5947
2018-06-21T04:41:29.933Z,6083
2018-06-21T04:41:59.880Z,6050
2018-06-21T04:42:29.976Z,5910
2018-06-21T04:42:59.988Z,5737
2018-06-21T04:43:30.047Z,5623
2018-06-21T04:43:59.984Z,5513
2018-06-21T04:44:30.131Z,5420
2018-06-21T04:45:00.046Z,5273
2018-06-21T04:45:30.189Z,5153
2018-06-21T04:46:30.215Z,5300
2018-06-21T04:47:00.178Z,5527
2018-06-21T04:47:30.364Z,5753
2018-06-21T04:48:01.984Z,6033
2018-06-21T04:48:30.381Z,6340
2018-06-21T04:49:02.572Z,6543
2018-06-21T04:49:30.451Z,6590
2018-06-21T04:50:01.744Z,6537
2018-06-21T04:50:30.457Z,6523
2018-06-21T04:51:00.851Z,6563
2018-06-21T04:51:30.557Z,6827
2018-06-21T04:52:01.246Z,7267
2018-06-21T04:52:30.676Z,7757
2018-06-21T04:53:01.734Z,8053
2018-06-21T04:53:30.704Z,7823
2018-06-21T04:54:01.546Z,7023
2018-06-21T04:54:30.773Z,6003
2018-06-21T04:55:01.577Z,5290
2018-06-21T04:55:30.794Z,4900
2018-06-21T04:56:00.864Z,4750
2018-06-21T04:56:30.851Z,4870
2018-06-21T04:57:01.310Z,5167
2018-06-21T04:57:30.952Z,5547
2018-06-21T04:58:01.143Z,5967
2018-06-21T04:58:30.957Z,6483
2018-06-21T04:59:01.580Z,7053
2018-06-21T04:59:31.022Z,7703
2018-06-21T05:00:01.722Z,8417
2018-06-21T05:00:31.076Z,8923
2018-06-21T05:01:01.574Z,9150
2018-06-21T05:01:31.145Z,9027
2018-06-21T05:02:01.592Z,8873
2018-06-21T05:02:31.206Z,8547
2018-06-21T05:03:01.523Z,7893
2018-06-21T05:03:31.271Z,6953
2018-06-21T05:04:01.225Z,6163
2018-06-21T05:04:31.323Z,5473
2018-06-21T05:05:01.290Z,5117
2018-06-21T05:05:31.392Z,4957
2018-06-21T05:06:01.579Z,4827
2018-06-21T05:06:31.461Z,5037
2018-06-21T05:07:01.493Z,5880
2018-06-21T05:07:31.528Z,5650
2018-06-21T05:08:01.651Z,6097
2018-06-21T05:08:31.578Z,6493
2018-06-21T05:09:01.537Z,6847
2018-06-21T05:09:31.634Z,6997
2018-06-21T05:10:01.592Z,7060
2018-06-21T05:10:31.675Z,7053
2018-06-21T05:11:01.670Z,10207
2018-06-21T05:11:31.758Z,9080
2018-06-21T05:12:01.713Z,7497
2018-06-21T05:12:31.793Z,7087
2018-06-21T05:13:02.019Z,6957
2018-06-21T05:13:31.860Z,6400
2018-06-21T05:14:01.835Z,5983
2018-06-21T05:14:31.920Z,6113
2018-06-21T05:15:01.977Z,6613
2018-06-21T05:15:31.977Z,8500
2018-06-21T05:16:02.025Z,6680
2018-06-21T05:16:32.043Z,6337
2018-06-21T05:17:02.020Z,6243
2018-06-21T05:17:32.115Z,6250
2018-06-21T05:18:02.137Z,6330
2018-06-21T05:18:32.164Z,6270
2018-06-21T05:19:02.142Z,6293
2018-06-21T05:19:32.246Z,6373
2018-06-21T05:20:02.641Z,6420
2018-06-21T05:20:32.323Z,6437
2018-06-21T05:21:02.313Z,6487
2018-06-21T05:21:32.409Z,6523
2018-06-21T05:22:02.381Z,6550
2018-06-21T05:22:32.486Z,6563
2018-06-21T05:23:02.396Z,6543
2018-06-21T05:23:32.517Z,6533
2018-06-21T05:24:02.548Z,6760
2018-06-21T05:24:32.544Z,6513
2018-06-21T05:25:02.629Z,7530
2018-06-21T05:25:32.595Z,6567
2018-06-21T05:26:02.591Z,6593
2018-06-21T05:26:32.690Z,6667
2018-06-21T05:27:02.676Z,6817
2018-06-21T05:27:32.720Z,7100
2018-06-21T05:28:02.777Z,7510
2018-06-21T05:28:32.825Z,8177
2018-06-21T05:29:02.832Z,8160
2018-06-21T05:29:32.841Z,8787
2018-06-21T05:30:02.825Z,8820
2018-06-21T05:30:32.909Z,8950
2018-06-21T05:31:02.910Z,9233
2018-06-21T05:31:32.967Z,9270
2018-06-21T05:32:03.080Z,9137
2018-06-21T05:32:33.038Z,9013
2018-06-21T05:33:03.059Z,8970
2018-06-21T05:33:33.090Z,9027
2018-06-21T05:34:03.142Z,9297
2018-06-21T05:34:33.147Z,8983
2018-06-21T05:35:03.145Z,9830
2018-06-21T05:35:33.272Z,10320
2018-06-21T05:36:03.203Z,10243
2018-06-21T05:36:33.297Z,9657
2018-06-21T05:37:03.253Z,9600
2018-06-21T05:37:33.412Z,9693
2018-06-21T05:38:03.348Z,10217
2018-06-21T05:38:33.424Z,10227
2018-06-21T05:39:03.410Z,10277
2018-06-21T05:39:33.479Z,10220
2018-06-21T05:40:03.473Z,9733
2018-06-21T05:40:33.558Z,9073
2018-06-21T05:41:03.525Z,8227
2018-06-21T05:41:33.653Z,7570
2018-06-21T05:42:03.583Z,7467
2018-06-21T05:42:33.699Z,7680
2018-06-21T05:43:03.690Z,7980
2018-06-21T05:43:33.767Z,8430
2018-06-21T05:44:03.768Z,8653
2018-06-21T05:44:33.784Z,8867
2018-06-21T05:45:03.809Z,8880
2018-06-21T05:45:33.895Z,8770
2018-06-21T05:46:03.836Z,8790
2018-06-21T05:46:33.925Z,8643
2018-06-21T05:47:03.970Z,8783
2018-06-21T05:47:33.976Z,8297
2018-06-21T05:48:04.213Z,8727
2018-06-21T05:48:34.038Z,8750
2018-06-21T05:49:04.041Z,8820
2018-06-21T05:49:34.144Z,9697
2018-06-21T05:50:04.166Z,9757
2018-06-21T05:50:34.155Z,9247
2018-06-21T05:51:04.120Z,9313
2018-06-21T05:51:34.275Z,9237
2018-06-21T05:52:04.216Z,9890
2018-06-21T05:52:34.277Z,9797
2018-06-21T05:53:04.284Z,11103
2018-06-21T05:53:34.353Z,10983
2018-06-21T05:54:04.433Z,10313
2018-06-21T05:54:34.408Z,10677
2018-06-21T05:55:04.419Z,10930
2018-06-21T05:55:34.482Z,10910
2018-06-21T05:56:04.473Z,11100
2018-06-21T05:56:34.577Z,11067
2018-06-21T05:57:04.527Z,11150
2018-06-21T05:57:34.573Z,11450
2018-06-21T05:58:04.609Z,11703
2018-06-21T05:58:34.649Z,11613
2018-06-21T05:59:04.627Z,11493
2018-06-21T05:59:34.748Z,11287
2018-06-21T06:00:04.696Z,11340
2018-06-21T06:00:34.751Z,12027
2018-06-21T06:01:04.751Z,12473
2018-06-21T06:01:34.816Z,12663
2018-06-21T06:02:04.824Z,12817
2018-06-21T06:02:34.870Z,12770
2018-06-21T06:03:05.118Z,12790
2018-06-21T06:03:34.937Z,12933
2018-06-21T06:04:04.970Z,12943
2018-06-21T06:04:34.994Z,13033
2018-06-21T06:05:04.979Z,12747
2018-06-21T06:05:35.056Z,13027
2018-06-21T06:06:05.035Z,13003
2018-06-21T06:06:35.158Z,12710
2018-06-21T06:07:05.099Z,12513
2018-06-21T06:07:35.248Z,12467
2018-06-21T06:08:05.159Z,12620
2018-06-21T06:08:35.344Z,12133
2018-06-21T06:09:05.290Z,11520
2018-06-21T06:09:35.332Z,11480
2018-06-21T06:10:05.363Z,11610
2018-06-21T06:10:35.413Z,10883
2018-06-21T06:11:05.392Z,11140
2018-06-21T06:11:35.462Z,11410
2018-06-21T06:12:05.416Z,11360
2018-06-21T06:12:35.527Z,11010
2018-06-21T06:13:05.496Z,11037
2018-06-21T06:13:35.567Z,11257
2018-06-21T06:14:05.568Z,11113
2018-06-21T06:14:35.611Z,11803
2018-06-21T06:15:05.644Z,11907
2018-06-21T06:15:35.744Z,13180
2018-06-21T06:16:05.691Z,12140
2018-06-21T06:16:35.748Z,12187
2018-06-21T06:17:05.730Z,12053
2018-06-21T06:17:35.822Z,11713
2018-06-21T06:18:05.835Z,11470
2018-06-21T06:18:35.867Z,11457
2018-06-21T06:19:05.895Z,11530
2018-06-21T06:19:35.924Z,11947
2018-06-21T06:20:06.010Z,12067
2018-06-21T06:20:36.022Z,11720
2018-06-21T06:21:05.971Z,11630
2018-06-21T06:21:36.046Z,11647
2018-06-21T06:22:06.021Z,11643
2018-06-21T06:22:36.135Z,11807
2018-06-21T06:23:06.085Z,11927
2018-06-21T06:23:36.171Z,12303
2018-06-21T06:24:06.221Z,12360
2018-06-21T06:24:36.262Z,12513
2018-06-21T06:25:06.222Z,12373
2018-06-21T06:25:36.336Z,12297
2018-06-21T06:26:06.269Z,12523
2018-06-21T06:26:36.428Z,12710
2018-06-21T06:27:06.344Z,12857
2018-06-21T06:27:36.487Z,12970
2018-06-21T06:28:06.406Z,13067
2018-06-21T06:28:36.534Z,13050
2018-06-21T06:29:06.522Z,13163
2018-06-21T06:29:36.571Z,13233
2018-06-21T06:30:06.549Z,13317
2018-06-21T06:30:36.638Z,13350
2018-06-21T06:31:06.639Z,13593
2018-06-21T06:31:36.754Z,13880
2018-06-21T06:32:06.690Z,14187
2018-06-21T06:32:36.831Z,14030
2018-06-21T06:33:06.807Z,14057
2018-06-21T06:33:36.817Z,14140
2018-06-21T06:34:06.873Z,14060
2018-06-21T06:34:36.875Z,13953
2018-06-21T06:35:06.918Z,14110
2018-06-21T06:35:36.933Z,14413
2018-06-21T06:36:06.928Z,14440
2018-06-21T06:36:37.002Z,14507
2018-06-21T06:37:07.027Z,14513
2018-06-21T06:37:37.067Z,14587
2018-06-21T06:38:07.043Z,14380
2018-06-21T06:38:37.124Z,14397
2018-06-21T06:39:07.170Z,14383
2018-06-21T06:39:37.174Z,14580
2018-06-21T06:40:07.207Z,14633
2018-06-21T06:40:37.260Z,14127
2018-06-21T06:41:07.238Z,14070
2018-06-21T06:41:37.418Z,13870
2018-06-21T06:42:07.328Z,13783
2018-06-21T06:42:37.411Z,13497
2018-06-21T06:43:07.340Z,13363
2018-06-21T06:43:37.475Z,13377
2018-06-21T06:44:07.471Z,13410
2018-06-21T06:44:37.502Z,13493
2018-06-21T06:45:07.445Z,13347
2018-06-21T06:45:37.564Z,13407
2018-06-21T06:46:07.614Z,13580
2018-06-21T06:46:37.662Z,13703
2018-06-21T06:47:07.600Z,13937
2018-06-21T06:47:37.652Z,14203
2018-06-21T06:48:07.692Z,14643
2018-06-21T06:48:37.751Z,15363
2018-06-21T06:49:07.713Z,15777
2018-06-21T06:49:37.787Z,16073
2018-06-21T06:50:07.756Z,15950
2018-06-21T06:50:37.844Z,16180
2018-06-21T06:51:07.817Z,16333
2018-06-21T06:51:37.905Z,16560
2018-06-21T06:52:07.877Z,16717
2018-06-21T06:52:37.949Z,17097
2018-06-21T06:53:07.934Z,16957
2018-06-21T06:53:38.029Z,16933
2018-06-21T06:54:08.044Z,16997
2018-06-21T06:54:38.175Z,16693
2018-06-21T06:55:08.120Z,16690
2018-06-21T06:55:38.195Z,16540
2018-06-21T06:56:08.193Z,16657
2018-06-21T06:56:38.243Z,17073
2018-06-21T06:57:08.180Z,17723
2018-06-21T06:57:38.324Z,17407
2018-06-21T06:58:08.309Z,17380
2018-06-21T06:58:38.345Z,17337
2018-06-21T06:59:08.482Z,17087
2018-06-21T06:59:38.448Z,16940
2018-06-21T07:00:08.396Z,16860
2018-06-21T07:00:38.473Z,17067
2018-06-21T07:01:08.466Z,17610
2018-06-21T07:01:38.521Z,17540
2018-06-21T07:02:08.578Z,17450
2018-06-21T07:02:38.590Z,17627
2018-06-21T07:03:08.573Z,17363
2018-06-21T07:03:38.879Z,17507
2018-06-21T07:04:08.616Z,17493
2018-06-21T07:04:38.745Z,16793
2018-06-21T07:05:08.696Z,16940
2018-06-21T07:05:38.761Z,16560
2018-06-21T07:06:08.750Z,16323
2018-06-21T07:06:38.827Z,16097
2018-06-21T07:07:08.828Z,16047
2018-06-21T07:08:08.889Z,15873
2018-06-21T07:08:38.939Z,15730
2018-06-21T07:09:08.926Z,15827
2018-06-21T07:09:39.051Z,15747
2018-06-21T07:10:09.057Z,15683
2018-06-21T07:10:39.102Z,15653
2018-06-21T07:11:09.045Z,15327
2018-06-21T07:11:39.130Z,15527
2018-06-21T07:12:09.176Z,15093
2018-06-21T07:12:39.203Z,15360
2018-06-21T07:13:09.225Z,15127
2018-06-21T07:13:39.339Z,15143
2018-06-21T07:14:09.282Z,15287
2018-06-21T07:14:39.355Z,15393
2018-06-21T07:15:09.358Z,14813
2018-06-21T07:15:39.369Z,17637
2018-06-21T07:16:09.427Z,15730
2018-06-21T07:16:39.535Z,14767
2018-06-21T07:17:09.449Z,14933
2018-06-21T07:17:39.539Z,16927
2018-06-21T07:18:09.513Z,18020
2018-06-21T07:18:39.620Z,17427
2018-06-21T07:19:09.564Z,19043
2018-06-21T07:19:39.677Z,20603
2018-06-21T07:20:09.626Z,21307
2018-06-21T07:20:39.724Z,22580
2018-06-21T07:21:09.706Z,23940
2018-06-21T07:21:39.805Z,22833
2018-06-21T07:22:09.795Z,23153
2018-06-21T07:22:39.893Z,31213
2018-06-21T07:23:09.839Z,18670
2018-06-21T07:23:39.907Z,26637
2018-06-21T07:24:09.878Z,21620
2018-06-21T07:24:40.008Z,17923
2018-06-21T07:25:09.977Z,18707
2018-06-21T07:25:40.012Z,23863
2018-06-21T07:26:10.037Z,21343
2018-06-21T07:26:40.098Z,20307
2018-06-21T07:27:10.091Z,20417
2018-06-21T07:27:40.146Z,22527
2018-06-21T07:28:10.126Z,19300
2018-06-21T07:28:40.211Z,19533
2018-06-21T07:29:10.190Z,23413
2018-06-21T07:29:40.270Z,38947
2018-06-21T07:30:10.257Z,28530
2018-06-21T07:30:40.330Z,38410
2018-06-21T07:31:10.321Z,33537
2018-06-21T07:31:40.408Z,31247
2018-06-21T07:32:10.391Z,21380
2018-06-21T07:32:40.448Z,37433
2018-06-21T07:33:10.452Z,24970
2018-06-21T07:33:40.516Z,26190
2018-06-21T07:34:10.514Z,29920
2018-06-21T07:34:40.599Z,31457
2018-06-21T07:35:10.579Z,26507
2018-06-21T07:35:40.647Z,27830
2018-06-21T07:36:10.625Z,30787
2018-06-21T07:36:40.716Z,32360
2018-06-21T07:37:10.653Z,27943
2018-06-21T07:37:40.738Z,30353
2018-06-21T07:38:10.715Z,19847
2018-06-21T07:38:40.827Z,20603
2018-06-21T07:39:10.777Z,34683
2018-06-21T07:39:40.890Z,40983
2018-06-21T07:40:10.839Z,36710
2018-06-21T07:40:40.978Z,21693
2018-06-21T07:41:10.919Z,19480
2018-06-21T07:41:41.059Z,21340
2018-06-21T07:42:10.960Z,27367
2018-06-21T07:42:41.094Z,55293
2018-06-21T07:43:11.021Z,54503
2018-06-21T07:43:41.148Z,25407
2018-06-21T07:44:11.085Z,25627
2018-06-21T07:44:41.260Z,28050
2018-06-21T07:45:11.160Z,52347
2018-06-21T07:45:41.254Z,46717
2018-06-21T07:46:11.207Z,47423
2018-06-21T07:46:41.369Z,41797
2018-06-21T07:47:11.311Z,21503
2018-06-21T07:47:41.379Z,21513
2018-06-21T07:48:11.374Z,22347
2018-06-21T07:48:41.456Z,22940
2018-06-21T07:49:11.421Z,21377
2018-06-21T07:49:41.559Z,22020
2018-06-21T07:50:11.509Z,21213
2018-06-21T07:50:41.536Z,19363
2018-06-21T07:51:11.556Z,18353
2018-06-21T07:51:41.609Z,17930
2018-06-21T07:52:11.633Z,18200
2018-06-21T07:52:41.686Z,18453
2018-06-21T07:53:11.702Z,18910
2018-06-21T07:53:41.781Z,18653
2018-06-21T07:54:11.706Z,17467
2018-06-21T07:54:41.781Z,17227
2018-06-21T07:55:11.785Z,16660
2018-06-21T07:55:41.863Z,17560
2018-06-21T07:56:11.834Z,18470
2018-06-21T07:56:41.914Z,18997
2018-06-21T07:57:11.895Z,19053
2018-06-21T07:57:41.983Z,18287
2018-06-21T07:58:11.962Z,17317
2018-06-21T07:58:42.063Z,16120
2018-06-21T07:59:12.113Z,16340
2018-06-21T07:59:42.164Z,17683
2018-06-21T08:00:12.093Z,19290
2018-06-21T08:00:42.181Z,22147
2018-06-21T08:01:12.143Z,26677
2018-06-21T08:01:42.291Z,17110
2018-06-21T08:02:12.203Z,17820
2018-06-21T08:02:42.340Z,19203
2018-06-21T08:03:12.260Z,21220
2018-06-21T08:03:42.417Z,24763
2018-06-21T08:04:12.352Z,28250
2018-06-21T08:04:42.453Z,55490
2018-06-21T08:05:12.477Z,23693
2018-06-21T08:05:42.496Z,22457
2018-06-21T08:06:12.486Z,23220
2018-06-21T08:06:42.548Z,25523
2018-06-21T08:07:12.522Z,39367
2018-06-21T08:07:42.665Z,30443
2018-06-21T08:08:12.629Z,27507
2018-06-21T08:08:42.721Z,24427
2018-06-21T08:09:12.671Z,22367
2018-06-21T08:09:42.737Z,22283
2018-06-21T08:10:12.774Z,22400
2018-06-21T08:10:42.804Z,22627
2018-06-21T08:11:12.808Z,22597
2018-06-21T08:11:42.873Z,21910
2018-06-21T08:12:12.879Z,20363
2018-06-21T08:12:42.931Z,18347
2018-06-21T08:13:12.927Z,16233
2018-06-21T08:13:43.013Z,14473
2018-06-21T08:14:12.991Z,12630
2018-06-21T08:14:43.056Z,10590
2018-06-21T08:15:13.057Z,8890
2018-06-21T08:15:43.102Z,7693
2018-06-21T08:16:13.116Z,6893
2018-06-21T08:16:43.164Z,6323
2018-06-21T08:17:13.179Z,5940
2018-06-21T08:17:43.204Z,6083
2018-06-21T08:18:13.276Z,6223
2018-06-21T08:18:43.295Z,5950
2018-06-21T08:19:13.510Z,5590
2018-06-21T08:19:43.360Z,5373
2018-06-21T08:20:13.411Z,5120
2018-06-21T08:20:43.418Z,4637
2018-06-21T08:21:13.440Z,4013
2018-06-21T08:21:43.517Z,3450
2018-06-21T08:22:13.447Z,3117
2018-06-21T08:22:43.551Z,2910
2018-06-21T08:23:13.533Z,2757
2018-06-21T08:23:43.629Z,2620
2018-06-21T08:24:13.605Z,2493
2018-06-21T08:24:43.646Z,2310
2018-06-21T08:25:13.635Z,2003
2018-06-21T08:25:43.763Z,1607
2018-06-21T08:26:13.716Z,1220
2018-06-21T08:26:43.810Z,1060
2018-06-21T08:27:13.780Z,1090
2018-06-21T08:27:43.825Z,1070
2018-06-21T08:28:13.805Z,1023
2018-06-21T08:28:43.931Z,963
2018-06-21T08:29:13.869Z,993
2018-06-21T08:29:43.962Z,1077
2018-06-21T08:30:13.931Z,1187
2018-06-21T08:30:44.011Z,1283
2018-06-21T08:31:14.008Z,1417
2018-06-21T08:31:44.132Z,1637
2018-06-21T08:32:14.064Z,1970
2018-06-21T08:32:44.192Z,2487
2018-06-21T08:33:14.109Z,3350
2018-06-21T08:33:44.211Z,4177
2018-06-21T08:34:14.246Z,4517
2018-06-21T08:34:44.460Z,4130
2018-06-21T08:35:14.277Z,3123
2018-06-21T08:35:44.322Z,2353
2018-06-21T08:36:14.389Z,2077
2018-06-21T08:36:44.426Z,1893
2018-06-21T08:37:14.378Z,1700
2018-06-21T08:37:44.507Z,1577
2018-06-21T08:38:14.463Z,1560
2018-06-21T08:38:44.624Z,1690
2018-06-21T08:39:14.525Z,2117
2018-06-21T08:39:44.613Z,2770
2018-06-21T08:40:14.552Z,3433
2018-06-21T08:40:44.656Z,3920
2018-06-21T08:41:14.683Z,4077
2018-06-21T08:41:44.699Z,3840
2018-06-21T08:42:14.662Z,3277
2018-06-21T08:42:44.751Z,2787
2018-06-21T08:43:14.767Z,2333
2018-06-21T08:43:44.809Z,2007
2018-06-21T08:44:14.832Z,1640
2018-06-21T08:44:44.870Z,1877
2018-06-21T08:45:14.853Z,2047
2018-06-21T08:45:44.993Z,2347
2018-06-21T08:46:14.970Z,2417
2018-06-21T08:46:45.013Z,2260
2018-06-21T08:47:14.976Z,2110
2018-06-21T08:47:45.080Z,2017
2018-06-21T08:48:15.039Z,2010
2018-06-21T08:48:45.183Z,1990
2018-06-21T08:49:15.167Z,1923
2018-06-21T08:49:45.217Z,1857
2018-06-21T08:50:15.173Z,1890
2018-06-21T08:50:45.265Z,1950
2018-06-21T08:51:15.279Z,2073
2018-06-21T08:51:45.333Z,2350
2018-06-21T08:52:15.300Z,2763
2018-06-21T08:52:45.389Z,2990
2018-06-21T08:53:15.373Z,3060
2018-06-21T08:53:45.542Z,3070
2018-06-21T08:54:15.454Z,2903
2018-06-21T08:54:45.509Z,2573
2018-06-21T08:55:15.523Z,2157
2018-06-21T08:55:45.576Z,2253
2018-06-21T08:56:15.576Z,2210
2018-06-21T08:56:45.645Z,2113
2018-06-21T08:57:15.685Z,2293
2018-06-21T08:57:45.726Z,2457
2018-06-21T08:58:15.689Z,2537
2018-06-21T08:58:45.835Z,2637
2018-06-21T08:59:15.737Z,2433
2018-06-21T08:59:45.827Z,2143
2018-06-21T09:00:15.846Z,2440
2018-06-21T09:00:45.856Z,2943
2018-06-21T09:01:15.922Z,3223
2018-06-21T09:01:45.954Z,3733
2018-06-21T09:02:15.967Z,4057
2018-06-21T09:02:46.003Z,3587
2018-06-21T09:03:15.986Z,2927
2018-06-21T09:03:46.128Z,2633
2018-06-21T09:04:16.104Z,2247
2018-06-21T09:04:46.133Z,2093
2018-06-21T09:05:16.114Z,2340
2018-06-21T09:05:46.210Z,2363
2018-06-21T09:06:16.179Z,3070
2018-06-21T09:06:46.245Z,3040
2018-06-21T09:07:16.245Z,4053
2018-06-21T09:07:46.335Z,4320